createdAt,value
2018-12-14T00:01:08.109Z,-1.93
2018-12-14T00:03:34.283Z,-2.00
2018-12-14T00:06:00.157Z,-2.05
2018-12-14T00:08:26.091Z,-2.06
2018-12-14T00:10:51.967Z,-2.07
2018-12-14T00:13:17.982Z,-2.12
2018-12-14T00:15:43.895Z,-2.12
2018-12-14T00:18:09.854Z,-2.04
2018-12-14T00:20:35.745Z,-2.06
2018-12-14T00:23:01.624Z,-2.08
2018-12-14T00:25:27.543Z,-2.08
2018-12-14T00:27:53.444Z,-2.03
2018-12-14T00:30:19.431Z,-2.07
2018-12-14T00:32:45.333Z,-2.03
2018-12-14T00:35:11.282Z,-2.03
2018-12-14T00:37:37.186Z,-2.00
2018-12-14T00:40:04.070Z,-2.02
2018-12-14T00:42:29.934Z,-2.12
2018-12-14T00:44:55.825Z,-2.14
2018-12-14T00:47:21.759Z,-2.13
2018-12-14T00:49:47.629Z,-2.15
2018-12-14T00:52:13.587Z,-2.17
2018-12-14T00:54:39.565Z,-2.18
2018-12-14T00:57:05.455Z,-2.17
2018-12-14T00:59:31.307Z,-2.21
2018-12-14T01:01:57.207Z,-2.16
2018-12-14T01:04:23.087Z,-2.16
2018-12-14T01:06:49.015Z,-2.17
2018-12-14T01:09:14.923Z,-2.21
2018-12-14T01:11:40.932Z,-2.18
2018-12-14T01:14:06.795Z,-2.17
2018-12-14T01:16:32.818Z,-2.24
2018-12-14T01:18:58.715Z,-2.22
2018-12-14T01:21:24.565Z,-2.19
2018-12-14T01:23:50.520Z,-2.16
2018-12-14T01:26:16.421Z,-2.17
2018-12-14T01:28:42.321Z,-2.14
2018-12-14T01:31:08.212Z,-2.15
2018-12-14T01:33:34.281Z,-2.16
2018-12-14T01:36:00.164Z,-2.17
2018-12-14T01:38:26.018Z,-2.19
2018-12-14T01:40:51.930Z,-2.16
2018-12-14T01:43:17.819Z,-2.21
2018-12-14T01:45:43.698Z,-2.22
2018-12-14T01:48:09.602Z,-2.18
2018-12-14T01:50:35.498Z,-2.23
2018-12-14T01:53:01.358Z,-2.31
2018-12-14T01:55:27.210Z,-2.32
2018-12-14T01:57:53.231Z,-2.37
2018-12-14T02:00:19.171Z,-2.36
2018-12-14T02:02:45.154Z,-2.36
2018-12-14T02:05:11.015Z,-2.34
2018-12-14T02:07:37.102Z,-2.37
2018-12-14T02:10:03.398Z,-2.39
2018-12-14T02:12:29.286Z,-2.47
2018-12-14T02:14:55.188Z,-2.39
2018-12-14T02:17:21.055Z,-2.46
2018-12-14T02:19:46.972Z,-2.45
2018-12-14T02:22:12.934Z,-2.48
2018-12-14T02:24:38.851Z,-2.53
2018-12-14T02:27:04.888Z,-2.51
2018-12-14T02:29:30.845Z,-2.53
2018-12-14T02:31:56.730Z,-2.55
2018-12-14T02:34:22.600Z,-2.49
2018-12-14T02:36:48.551Z,-2.56
2018-12-14T02:39:14.424Z,-2.59
2018-12-14T02:41:40.317Z,-2.57
2018-12-14T02:44:06.235Z,-2.76
2018-12-14T02:46:32.114Z,-2.58
2018-12-14T02:48:58.015Z,-2.54
2018-12-14T02:51:23.907Z,-2.61
2018-12-14T02:53:49.794Z,-2.61
2018-12-14T02:56:15.683Z,-2.61
2018-12-14T02:58:41.709Z,-2.69
2018-12-14T03:01:07.603Z,-2.75
2018-12-14T03:03:33.491Z,-2.73
2018-12-14T03:05:59.361Z,-2.74
2018-12-14T03:08:25.342Z,-2.72
2018-12-14T03:10:51.298Z,-2.76
2018-12-14T03:13:17.204Z,-2.72
2018-12-14T03:15:43.090Z,-2.75
2018-12-14T03:18:09.017Z,-2.75
2018-12-14T03:20:34.997Z,-2.76
2018-12-14T03:23:00.974Z,-2.79
2018-12-14T03:25:26.974Z,-2.77
2018-12-14T03:27:52.943Z,-2.83
2018-12-14T03:30:18.828Z,-2.79
2018-12-14T03:32:44.741Z,-2.84
2018-12-14T03:35:10.658Z,-2.79
2018-12-14T03:37:36.535Z,-2.86
2018-12-14T03:40:03.591Z,-2.84
2018-12-14T03:42:34.397Z,-2.86
2018-12-14T03:44:57.548Z,-2.90
2018-12-14T03:47:24.334Z,-2.88
2018-12-14T03:49:50.211Z,-2.87
2018-12-14T03:52:16.189Z,-2.83
2018-12-14T03:54:42.134Z,-2.90
2018-12-14T03:57:08.057Z,-2.91
2018-12-14T03:59:34.024Z,-2.92
2018-12-14T04:01:59.941Z,-2.94
2018-12-14T04:04:25.842Z,-2.95
2018-12-14T04:06:51.740Z,-2.90
2018-12-14T04:09:17.674Z,-2.87
2018-12-14T04:11:43.571Z,-2.95
2018-12-14T04:14:09.444Z,-2.89
2018-12-14T04:16:35.351Z,-2.91
2018-12-14T04:19:01.358Z,-2.95
2018-12-14T04:21:34.347Z,-2.95
2018-12-14T04:24:00.211Z,-2.98
2018-12-14T04:26:26.262Z,-2.94
2018-12-14T04:28:52.154Z,-2.92
2018-12-14T04:31:18.023Z,-3.00
2018-12-14T04:33:44.093Z,-2.95
2018-12-14T04:36:09.978Z,-2.99
2018-12-14T04:38:35.886Z,-2.98
2018-12-14T04:41:01.856Z,-2.86
2018-12-14T04:43:34.714Z,-2.92
2018-12-14T04:46:00.605Z,-2.89
2018-12-14T04:48:26.530Z,-2.90
2018-12-14T04:50:52.422Z,-2.87
2018-12-14T04:53:18.326Z,-2.94
2018-12-14T04:55:44.207Z,-2.90
2018-12-14T04:58:10.106Z,-2.91
2018-12-14T05:00:36.010Z,-2.89
2018-12-14T05:03:01.908Z,-2.96
2018-12-14T05:05:27.778Z,-2.94
2018-12-14T05:07:53.683Z,-2.99
2018-12-14T05:10:19.570Z,-3.01
2018-12-14T05:12:45.525Z,-2.99
2018-12-14T05:15:11.467Z,-2.95
2018-12-14T05:17:37.467Z,-2.95
2018-12-14T05:20:04.648Z,-2.96
2018-12-14T05:22:30.511Z,-2.92
2018-12-14T05:24:56.385Z,-2.99
2018-12-14T05:27:22.385Z,-3.00
2018-12-14T05:29:48.614Z,-2.90
2018-12-14T05:32:14.492Z,-2.86
2018-12-14T05:34:40.339Z,-2.89
2018-12-14T05:37:06.224Z,-2.84
2018-12-14T05:39:32.097Z,-2.85
2018-12-14T05:41:58.116Z,-2.81
2018-12-14T05:44:23.991Z,-2.80
2018-12-14T05:46:49.870Z,-2.79
2018-12-14T05:49:15.785Z,-2.81
2018-12-14T05:51:41.648Z,-2.78
2018-12-14T05:54:07.498Z,-2.73
2018-12-14T05:56:33.486Z,-2.74
2018-12-14T05:58:59.414Z,-2.76
2018-12-14T06:01:25.318Z,-2.83
2018-12-14T06:03:51.651Z,-2.72
2018-12-14T06:06:17.570Z,-2.79
2018-12-14T06:08:43.446Z,-2.73
2018-12-14T06:11:09.345Z,-2.74
2018-12-14T06:13:35.248Z,-2.75
2018-12-14T06:16:01.166Z,-2.72
2018-12-14T06:18:27.031Z,-2.72
2018-12-14T06:20:52.921Z,-2.72
2018-12-14T06:23:18.783Z,-2.75
2018-12-14T06:25:44.649Z,-2.68
2018-12-14T06:28:10.540Z,-2.67
2018-12-14T06:30:36.557Z,-2.63
2018-12-14T06:33:02.434Z,-2.64
2018-12-14T06:35:28.331Z,-2.69
2018-12-14T06:37:54.222Z,-2.70
2018-12-14T06:40:20.123Z,-2.68
2018-12-14T06:42:46.024Z,-2.69
2018-12-14T06:45:12.377Z,-2.70
2018-12-14T06:47:38.273Z,-2.66
2018-12-14T06:50:04.804Z,-2.77
2018-12-14T06:52:30.713Z,-2.73
2018-12-14T06:54:56.614Z,-2.72
2018-12-14T06:57:22.583Z,-2.78
2018-12-14T06:59:48.465Z,-2.78
2018-12-14T07:02:14.344Z,-2.78
2018-12-14T07:04:40.393Z,-2.73
2018-12-14T07:07:06.312Z,-2.68
2018-12-14T07:09:32.825Z,-2.75
2018-12-14T07:11:58.676Z,-2.68
2018-12-14T07:14:24.547Z,-2.70
2018-12-14T07:16:50.505Z,-2.73
2018-12-14T07:19:16.514Z,-2.73
2018-12-14T07:21:42.390Z,-2.69
2018-12-14T07:24:08.385Z,-2.72
2018-12-14T07:26:34.593Z,-2.71
2018-12-14T07:29:00.907Z,-2.74
2018-12-14T07:31:26.764Z,-2.68
2018-12-14T07:33:52.642Z,-2.66
2018-12-14T07:36:18.601Z,-2.67
2018-12-14T07:38:48.144Z,-2.64
2018-12-14T07:41:12.519Z,-2.65
2018-12-14T07:43:38.416Z,-2.70
2018-12-14T07:46:04.391Z,-2.67
2018-12-14T07:48:30.255Z,-2.65
2018-12-14T07:50:56.149Z,-2.63
2018-12-14T07:53:22.087Z,-2.56
2018-12-14T07:55:47.963Z,-2.54
2018-12-14T07:58:13.820Z,-2.54
2018-12-14T08:00:39.732Z,-2.54
2018-12-14T08:03:05.575Z,-2.54
2018-12-14T08:05:31.450Z,-2.48
2018-12-14T08:07:57.362Z,-2.43
2018-12-14T08:10:23.474Z,-2.43
2018-12-14T08:12:49.990Z,-2.40
2018-12-14T08:15:16.206Z,-2.44
2018-12-14T08:17:42.082Z,-2.37
2018-12-14T08:20:07.991Z,-2.33
2018-12-14T08:22:33.974Z,-2.34
2018-12-14T08:24:59.847Z,-2.41
2018-12-14T08:27:25.718Z,-2.28
2018-12-14T08:29:51.908Z,-2.18
2018-12-14T08:32:18.022Z,-2.13
2018-12-14T08:34:43.899Z,-2.16
2018-12-14T08:37:09.848Z,-2.16
2018-12-14T08:39:35.735Z,-2.13
2018-12-14T08:42:01.594Z,-2.11
2018-12-14T08:44:27.534Z,-2.06
2018-12-14T08:46:53.378Z,-1.98
2018-12-14T08:49:19.302Z,-1.93
2018-12-14T08:51:45.201Z,-1.89
2018-12-14T08:54:11.110Z,-1.82
2018-12-14T08:56:36.981Z,-1.79
2018-12-14T08:59:02.902Z,-1.74
2018-12-14T09:01:28.797Z,-1.79
2018-12-14T09:03:54.740Z,-1.80
2018-12-14T09:06:20.722Z,-1.74
2018-12-14T09:08:46.620Z,-1.75
2018-12-14T09:11:13.513Z,-1.68
2018-12-14T09:13:39.438Z,-1.56
2018-12-14T09:16:05.348Z,-1.61
2018-12-14T09:18:31.958Z,-1.63
2018-12-14T09:21:01.079Z,-1.65
2018-12-14T09:23:25.795Z,-1.75
2018-12-14T09:25:51.855Z,-1.70
2018-12-14T09:28:17.680Z,-1.64
2018-12-14T09:30:43.582Z,-1.60
2018-12-14T09:33:09.460Z,-1.58
2018-12-14T09:35:35.399Z,-1.53
2018-12-14T09:38:01.280Z,-1.51
2018-12-14T09:43:07.314Z,-1.52
2018-12-14T09:45:33.197Z,-1.49
2018-12-14T09:47:59.026Z,-1.51
2018-12-14T09:50:24.897Z,-1.49
2018-12-14T09:52:50.779Z,-1.42
2018-12-14T09:55:16.661Z,-1.47
2018-12-14T09:57:42.592Z,-1.43
2018-12-14T10:00:08.595Z,-1.45
2018-12-14T10:02:34.490Z,-1.47
2018-12-14T10:05:00.361Z,-1.41
2018-12-14T10:07:26.218Z,-1.37
2018-12-14T10:09:52.074Z,-1.39
2018-12-14T10:12:17.899Z,-1.30
2018-12-14T10:14:43.722Z,-1.39
2018-12-14T10:17:09.558Z,-1.33
2018-12-14T10:19:35.403Z,-1.32
2018-12-14T10:22:08.397Z,-1.31
2018-12-14T10:24:34.355Z,-1.31
2018-12-14T10:27:00.189Z,-1.33
2018-12-14T10:29:26.086Z,-1.31
2018-12-14T10:31:51.947Z,-1.38
2018-12-14T10:34:17.810Z,-1.29
2018-12-14T10:36:43.677Z,-1.27
2018-12-14T10:39:09.514Z,-1.19
2018-12-14T10:41:35.363Z,-1.38
2018-12-14T10:44:07.236Z,-1.27
2018-12-14T10:46:29.442Z,-1.24
2018-12-14T10:48:55.307Z,-1.28
2018-12-14T10:51:21.151Z,-1.24
2018-12-14T10:53:46.989Z,-1.30
2018-12-14T10:56:12.847Z,-1.23
2018-12-14T10:58:38.702Z,-1.41
2018-12-14T11:01:14.255Z,-1.37
2018-12-14T11:06:31.399Z,-1.37
2018-12-14T11:08:57.255Z,-1.33
2018-12-14T11:11:23.221Z,-1.32
2018-12-14T11:13:49.229Z,-1.27
2018-12-14T11:16:15.095Z,-1.34
2018-12-14T11:18:40.977Z,-1.32
2018-12-14T11:21:06.834Z,-1.35
2018-12-14T11:23:32.700Z,-1.42
2018-12-14T11:25:58.602Z,-1.45
2018-12-14T11:28:24.451Z,-1.45
2018-12-14T11:30:50.316Z,-1.48
2018-12-14T11:33:16.326Z,-1.48
2018-12-14T11:35:42.211Z,-1.45
2018-12-14T11:38:08.179Z,-1.40
2018-12-14T11:40:34.085Z,-1.43
2018-12-14T11:42:59.974Z,-1.45
2018-12-14T11:45:25.849Z,-1.35
2018-12-14T11:47:51.739Z,-1.45
2018-12-14T11:50:17.609Z,-1.48
2018-12-14T11:52:43.529Z,-1.42
2018-12-14T11:55:09.410Z,-1.40
2018-12-14T11:57:35.264Z,-1.42
2018-12-14T12:00:01.199Z,-1.40
2018-12-14T12:02:27.165Z,-1.46
2018-12-14T12:04:52.995Z,-1.49
2018-12-14T12:07:18.866Z,-1.50
2018-12-14T12:09:44.747Z,-1.49
2018-12-14T12:12:10.610Z,-1.43
2018-12-14T12:14:36.477Z,-1.46
2018-12-14T12:17:02.465Z,-1.46
2018-12-14T12:19:28.334Z,-1.45
2018-12-14T12:21:54.227Z,-1.51
2018-12-14T12:24:20.313Z,-1.45
2018-12-14T12:26:46.171Z,-1.42
2018-12-14T12:29:12.027Z,-1.37
2018-12-14T12:31:44.860Z,-1.35
2018-12-14T12:34:10.718Z,-1.44
2018-12-14T12:36:36.773Z,-1.55
2018-12-14T12:39:04.426Z,-1.49
2018-12-14T12:41:30.326Z,-1.47
2018-12-14T12:43:56.206Z,-1.43
2018-12-14T12:46:22.114Z,-1.41
2018-12-14T12:48:48.164Z,-1.38
2018-12-14T12:51:14.142Z,-1.42
2018-12-14T12:53:40.027Z,-1.55
2018-12-14T12:56:05.879Z,-1.47
2018-12-14T12:58:31.688Z,-1.51
2018-12-14T13:00:57.545Z,-1.55
2018-12-14T13:03:23.453Z,-1.52
2018-12-14T13:05:49.330Z,-1.50
2018-12-14T13:08:15.184Z,-1.56
2018-12-14T13:10:41.065Z,-1.58
2018-12-14T13:13:06.891Z,-1.55
2018-12-14T13:15:32.741Z,-1.51
2018-12-14T13:17:58.628Z,-1.46
2018-12-14T13:20:24.494Z,-1.54
2018-12-14T13:22:50.411Z,-1.65
2018-12-14T13:25:23.251Z,-1.54
2018-12-14T13:27:49.219Z,-1.62
2018-12-14T13:30:15.113Z,-1.63
2018-12-14T13:32:41.035Z,-1.67
2018-12-14T13:35:06.886Z,-1.64
2018-12-14T13:37:32.893Z,-1.61
2018-12-14T13:39:58.773Z,-1.51
2018-12-14T13:42:24.751Z,-1.56
2018-12-14T13:44:51.041Z,-1.51
2018-12-14T13:47:17.168Z,-1.37
2018-12-14T13:49:43.064Z,-1.52
2018-12-14T13:52:09.038Z,-1.44
2018-12-14T13:54:34.924Z,-1.43
2018-12-14T13:57:00.842Z,-1.44
2018-12-14T13:59:26.695Z,-1.55
2018-12-14T14:01:52.546Z,-1.57
2018-12-14T14:04:18.414Z,-1.63
2018-12-14T14:06:44.317Z,-1.64
2018-12-14T14:09:10.239Z,-1.64
2018-12-14T14:11:36.134Z,-1.54
2018-12-14T14:14:02.091Z,-1.50
2018-12-14T14:16:27.957Z,-1.50
2018-12-14T14:18:53.944Z,-1.56
2018-12-14T14:21:19.929Z,-1.51
2018-12-14T14:23:45.839Z,-1.53
2018-12-14T14:26:11.730Z,-1.55
2018-12-14T14:28:37.585Z,-1.59
2018-12-14T14:31:03.465Z,-1.56
2018-12-14T14:33:29.354Z,-1.57
2018-12-14T14:35:55.465Z,-1.62
2018-12-14T14:38:21.356Z,-1.61
2018-12-14T14:40:47.276Z,-1.62
2018-12-14T14:43:13.162Z,-1.64
2018-12-14T14:45:39.117Z,-1.63
2018-12-14T14:48:05.025Z,-1.63
2018-12-14T14:53:25.793Z,-1.68
2018-12-14T14:55:51.665Z,-1.66
2018-12-14T14:58:17.545Z,-1.67
2018-12-14T15:00:43.570Z,-1.68
2018-12-14T15:03:09.745Z,-1.63
2018-12-14T15:05:35.686Z,-1.69
2018-12-14T15:08:01.555Z,-1.82
2018-12-14T15:10:27.418Z,-1.73
2018-12-14T15:12:53.304Z,-1.79
2018-12-14T15:15:19.215Z,-1.76
2018-12-14T15:17:45.196Z,-1.66
2018-12-14T15:20:11.109Z,-1.58
2018-12-14T15:22:36.974Z,-1.65
2018-12-14T15:25:03.073Z,-1.77
2018-12-14T15:27:29.023Z,-1.84
2018-12-14T15:29:54.978Z,-1.81
2018-12-14T15:32:21.173Z,-1.79
2018-12-14T15:34:47.040Z,-1.82
2018-12-14T15:37:12.980Z,-1.74
2018-12-14T15:39:38.857Z,-1.79
2018-12-14T15:42:04.789Z,-1.74
2018-12-14T15:44:30.712Z,-1.82
2018-12-14T15:46:56.628Z,-1.82
2018-12-14T15:49:22.591Z,-1.81
2018-12-14T15:51:48.499Z,-1.84
2018-12-14T15:54:14.436Z,-1.74
2018-12-14T15:56:40.317Z,-1.83
2018-12-14T15:59:06.281Z,-1.84
2018-12-14T16:01:32.203Z,-1.79
2018-12-14T16:03:58.123Z,-1.80
2018-12-14T16:06:24.018Z,-1.81
2018-12-14T16:08:49.938Z,-1.79
2018-12-14T16:11:15.838Z,-1.80
2018-12-14T16:13:41.744Z,-1.73
2018-12-14T16:16:07.646Z,-1.79
2018-12-14T16:18:33.575Z,-1.79
2018-12-14T16:20:59.604Z,-1.77
2018-12-14T16:23:25.563Z,-1.78
2018-12-14T16:25:52.583Z,-1.86
2018-12-14T16:28:18.613Z,-1.87
2018-12-14T16:30:44.515Z,-1.85
2018-12-14T16:33:10.450Z,-1.89
2018-12-14T16:35:43.475Z,-1.82
2018-12-14T16:38:09.383Z,-1.69
2018-12-14T16:40:35.273Z,-1.81
2018-12-14T16:43:01.145Z,-1.85
2018-12-14T16:45:27.058Z,-1.87
2018-12-14T16:47:53.895Z,-1.81
2018-12-14T16:50:19.769Z,-1.68
2018-12-14T16:52:47.611Z,-1.58
2018-12-14T16:55:13.873Z,-1.64
2018-12-14T16:57:39.782Z,-1.65
2018-12-14T17:00:06.877Z,-1.69
2018-12-14T17:02:32.781Z,-1.67
2018-12-14T17:04:58.658Z,-1.76
2018-12-14T17:07:24.665Z,-1.74
2018-12-14T17:09:50.659Z,-1.67
2018-12-14T17:12:16.764Z,-1.70
2018-12-14T17:14:42.677Z,-1.75
2018-12-14T17:17:08.550Z,-1.80
2018-12-14T17:19:34.440Z,-1.76
2018-12-14T17:22:00.310Z,-1.75
2018-12-14T17:24:26.272Z,-1.72
2018-12-14T17:26:52.878Z,-1.69
2018-12-14T17:29:18.958Z,-1.72
2018-12-14T17:31:44.885Z,-1.62
2018-12-14T17:34:11.501Z,-1.75
2018-12-14T17:36:38.320Z,-1.73
2018-12-14T17:39:04.828Z,-1.69
2018-12-14T17:41:30.731Z,-1.67
2018-12-14T17:43:57.694Z,-1.59
2018-12-14T17:46:23.667Z,-1.62
2018-12-14T17:48:49.570Z,-1.65
2018-12-14T17:51:15.465Z,-1.66
2018-12-14T17:53:41.740Z,-1.54
2018-12-14T17:56:07.657Z,-1.59
2018-12-14T17:58:33.534Z,-1.62
2018-12-14T18:00:59.461Z,-1.64
2018-12-14T18:03:25.361Z,-1.61
2018-12-14T18:05:51.864Z,-1.64
2018-12-14T18:08:17.770Z,-1.58
2018-12-14T18:10:43.706Z,-1.54
2018-12-14T18:13:09.731Z,-1.46
2018-12-14T18:15:35.585Z,-1.56
2018-12-14T18:18:01.492Z,-1.53
2018-12-14T18:20:27.444Z,-1.57
2018-12-14T18:22:53.660Z,-1.55
2018-12-14T18:25:20.019Z,-1.52
2018-12-14T18:27:46.019Z,-1.56
2018-12-14T18:30:12.045Z,-1.56
2018-12-14T18:32:37.910Z,-1.58
2018-12-14T18:35:04.922Z,-1.52
2018-12-14T18:37:30.901Z,-1.60
2018-12-14T18:39:56.840Z,-1.56
2018-12-14T18:42:22.778Z,-1.48
2018-12-14T18:44:48.748Z,-1.57
2018-12-14T18:47:14.784Z,-1.56
2018-12-14T18:49:40.848Z,-1.57
2018-12-14T18:52:06.759Z,-1.58
2018-12-14T18:54:33.047Z,-1.58
2018-12-14T18:56:58.975Z,-1.52
2018-12-14T18:59:25.219Z,-1.52
2018-12-14T19:01:51.597Z,-1.51
2018-12-14T19:04:17.538Z,-1.56
2018-12-14T19:06:43.512Z,-1.50
2018-12-14T19:09:09.455Z,-1.50
2018-12-14T19:11:35.369Z,-1.54
2018-12-14T19:14:01.425Z,-1.54
2018-12-14T19:16:27.355Z,-1.54
2018-12-14T19:18:53.235Z,-1.48
2018-12-14T19:21:19.116Z,-1.52
2018-12-14T19:23:45.106Z,-1.45
2018-12-14T19:26:11.076Z,-1.46
2018-12-14T19:28:37.230Z,-1.42
2018-12-14T19:31:03.192Z,-1.55
2018-12-14T19:33:29.208Z,-1.53
2018-12-14T19:35:55.175Z,-1.49
2018-12-14T19:38:21.211Z,-1.39
2018-12-14T19:40:47.135Z,-1.45
2018-12-14T19:43:13.002Z,-1.47
2018-12-14T19:45:38.926Z,-1.49
2018-12-14T19:48:04.826Z,-1.52
2018-12-14T19:50:30.727Z,-1.51
2018-12-14T19:52:56.666Z,-1.45
2018-12-14T19:55:22.669Z,-1.51
2018-12-14T19:57:48.655Z,-1.45
2018-12-14T20:00:14.709Z,-1.49
2018-12-14T20:02:40.748Z,-1.50
2018-12-14T20:05:07.251Z,-1.51
2018-12-14T20:07:33.151Z,-1.50
2018-12-14T20:09:59.059Z,-1.34
2018-12-14T20:12:24.953Z,-1.43
2018-12-14T20:14:50.862Z,-1.50
2018-12-14T20:17:16.969Z,-1.57
2018-12-14T20:19:42.841Z,-1.53
2018-12-14T20:22:15.812Z,-1.59
2018-12-14T20:24:41.697Z,-1.56
2018-12-14T20:27:07.714Z,-1.55
2018-12-14T20:29:33.607Z,-1.45
2018-12-14T20:31:59.488Z,-1.37
2018-12-14T20:34:25.394Z,-1.28
2018-12-14T20:36:51.332Z,-1.28
2018-12-14T20:39:17.354Z,-1.39
2018-12-14T20:41:43.278Z,-1.61
2018-12-14T20:44:09.233Z,-1.53
2018-12-14T20:46:35.264Z,-1.50
2018-12-14T20:49:01.181Z,-1.50
2018-12-14T20:51:27.157Z,-1.41
2018-12-14T20:53:53.054Z,-1.35
2018-12-14T20:56:18.995Z,-1.43
2018-12-14T20:58:44.952Z,-1.57
2018-12-14T21:01:10.859Z,-1.49
2018-12-14T21:03:36.782Z,-1.49
2018-12-14T21:06:02.758Z,-1.52
2018-12-14T21:08:28.764Z,-1.52
2018-12-14T21:10:54.618Z,-1.57
2018-12-14T21:13:20.566Z,-1.57
2018-12-14T21:15:46.480Z,-1.57
2018-12-14T21:18:12.387Z,-1.51
2018-12-14T21:20:38.469Z,-1.55
2018-12-14T21:23:04.438Z,-1.65
2018-12-14T21:25:30.299Z,-1.57
2018-12-14T21:27:56.195Z,-1.56
2018-12-14T21:30:22.071Z,-1.54
2018-12-14T21:32:47.906Z,-1.53
2018-12-14T21:35:13.787Z,-1.62
2018-12-14T21:37:46.618Z,-1.52
2018-12-14T21:40:12.539Z,-1.58
2018-12-14T21:42:38.402Z,-1.59
2018-12-14T21:45:05.721Z,-1.53
2018-12-14T21:47:31.672Z,-1.55
2018-12-14T21:49:57.597Z,-1.64
2018-12-14T21:52:23.528Z,-1.55
2018-12-14T21:54:49.413Z,-1.52
2018-12-14T21:57:15.368Z,-1.56
2018-12-14T21:59:41.225Z,-1.60
2018-12-14T22:02:07.203Z,-1.63
2018-12-14T22:04:33.243Z,-1.66
2018-12-14T22:06:59.160Z,-1.65
2018-12-14T22:09:25.081Z,-1.63
2018-12-14T22:11:51.104Z,-1.51
2018-12-14T22:14:17.000Z,-1.54
2018-12-14T22:16:42.885Z,-1.47
2018-12-14T22:19:08.818Z,-1.46
2018-12-14T22:21:34.683Z,-1.60
2018-12-14T22:24:00.562Z,-1.67
2018-12-14T22:26:26.430Z,-1.55
2018-12-14T22:28:52.275Z,-1.52
2018-12-14T22:31:18.140Z,-1.68
2018-12-14T22:33:43.991Z,-1.72
2018-12-14T22:36:09.910Z,-1.72
2018-12-14T22:38:35.811Z,-1.65
2018-12-14T22:41:01.748Z,-1.69
2018-12-14T22:43:27.606Z,-1.68
2018-12-14T22:45:53.504Z,-1.76
2018-12-14T22:48:19.377Z,-1.69
2018-12-14T22:50:45.405Z,-1.68
2018-12-14T22:53:11.284Z,-1.74
2018-12-14T22:55:37.178Z,-1.62
2018-12-14T22:58:03.104Z,-1.54
2018-12-14T23:00:29.086Z,-1.56
2018-12-14T23:02:54.976Z,-1.64
2018-12-14T23:05:20.945Z,-1.64
2018-12-14T23:07:46.857Z,-1.75
2018-12-14T23:10:12.873Z,-1.59
2018-12-14T23:12:38.781Z,-1.65
2018-12-14T23:15:05.496Z,-1.60
2018-12-14T23:17:31.400Z,-1.59
2018-12-14T23:19:57.329Z,-1.72
2018-12-14T23:22:23.239Z,-1.80
2018-12-14T23:24:49.182Z,-1.87
2018-12-14T23:27:15.085Z,-1.83
2018-12-14T23:29:40.972Z,-1.76
2018-12-14T23:32:07.078Z,-1.79
2018-12-14T23:34:32.966Z,-1.87
2018-12-14T23:36:58.874Z,-1.91
2018-12-14T23:39:24.779Z,-1.83
2018-12-14T23:41:50.644Z,-1.83
2018-12-14T23:44:16.514Z,-1.94
2018-12-14T23:46:42.508Z,-1.93
2018-12-14T23:49:08.459Z,-1.82
2018-12-14T23:51:34.424Z,-1.94
2018-12-14T23:54:00.403Z,-1.85
2018-12-14T23:56:26.398Z,-1.82
2018-12-14T23:58:53.007Z,-1.89
